createdAt,value
2023-02-27T00:00:16.282Z,5.82
2023-02-27T00:02:45.442Z,5.22
2023-02-27T00:05:13.335Z,7.38
2023-02-27T00:07:41.297Z,7.90
2023-02-27T00:10:10.505Z,8.63
2023-02-27T00:12:38.107Z,6.63
2023-02-27T00:15:07.411Z,6.15
2023-02-27T00:17:36.131Z,5.30
2023-02-27T00:20:04.049Z,5.78
2023-02-27T00:22:31.302Z,5.50
2023-02-27T00:24:58.590Z,5.72
2023-02-27T00:27:25.844Z,5.95
2023-02-27T00:29:53.016Z,5.13
2023-02-27T00:32:20.312Z,4.57
2023-02-27T00:34:49.132Z,5.00
2023-02-27T00:37:16.786Z,4.55
2023-02-27T00:39:43.970Z,4.65
2023-02-27T00:42:11.142Z,4.82
2023-02-27T00:44:38.290Z,5.07
2023-02-27T00:47:07.222Z,5.13
2023-02-27T00:49:34.442Z,5.93
2023-02-27T00:52:03.050Z,3.97
2023-02-27T00:54:30.272Z,6.07
2023-02-27T00:56:57.465Z,6.28
2023-02-27T00:59:24.621Z,3.92
2023-02-27T01:01:53.182Z,3.65
2023-02-27T01:04:20.388Z,4.47
2023-02-27T01:06:47.555Z,3.38
2023-02-27T01:09:16.145Z,3.00
2023-02-27T01:11:43.412Z,2.50
2023-02-27T01:14:10.606Z,3.22
2023-02-27T01:16:37.951Z,3.13
2023-02-27T01:19:05.165Z,3.28
2023-02-27T01:21:32.427Z,2.40
2023-02-27T01:23:59.706Z,2.53
2023-02-27T01:26:28.381Z,2.20
2023-02-27T01:28:55.553Z,2.55
2023-02-27T01:31:22.851Z,2.30
2023-02-27T01:33:50.042Z,2.15
2023-02-27T01:36:17.228Z,2.17
2023-02-27T01:38:44.363Z,2.53
2023-02-27T01:41:12.293Z,3.33
2023-02-27T01:43:57.318Z,3.25
2023-02-27T01:46:25.054Z,3.10
2023-02-27T01:48:55.103Z,3.70
2023-02-27T01:51:22.426Z,2.67
2023-02-27T01:53:52.209Z,3.97
2023-02-27T01:56:22.026Z,2.33
2023-02-27T01:58:51.573Z,2.15
2023-02-27T02:01:22.203Z,2.28
2023-02-27T02:04:00.568Z,2.17
2023-02-27T02:06:34.544Z,4.22
2023-02-27T02:09:03.220Z,5.50
2023-02-27T02:11:30.668Z,3.35
2023-02-27T02:14:00.026Z,3.50
2023-02-27T02:16:57.064Z,3.00
2023-02-27T02:19:53.171Z,2.25
2023-02-27T02:22:58.547Z,2.00
2023-02-27T02:26:09.853Z,1.15
2023-02-27T02:29:09.421Z,1.15
2023-02-27T02:32:07.247Z,1.65
2023-02-27T02:35:05.647Z,1.17
2023-02-27T02:38:02.904Z,1.77
2023-02-27T02:40:37.964Z,1.33
2023-02-27T02:43:12.319Z,1.52
2023-02-27T02:45:47.930Z,1.67
2023-02-27T02:48:20.301Z,1.67
2023-02-27T02:50:51.802Z,1.67
2023-02-27T02:53:36.733Z,1.35
2023-02-27T02:56:10.765Z,2.70
2023-02-27T02:58:46.314Z,2.78
2023-02-27T03:01:16.592Z,2.40
2023-02-27T03:03:51.433Z,2.47
2023-02-27T03:06:23.029Z,2.70
2023-02-27T03:08:55.823Z,1.45
2023-02-27T03:11:29.431Z,2.63
2023-02-27T03:14:01.896Z,2.42
2023-02-27T03:16:34.816Z,1.33
2023-02-27T03:19:08.940Z,1.10
2023-02-27T03:21:41.058Z,2.08
2023-02-27T03:24:13.222Z,1.33
2023-02-27T03:26:46.002Z,1.58
2023-02-27T03:29:20.287Z,1.35
2023-02-27T03:31:53.938Z,1.95
2023-02-27T03:34:27.378Z,1.40
2023-02-27T03:37:01.665Z,1.33
2023-02-27T03:39:40.243Z,1.63
2023-02-27T03:42:19.136Z,1.30
2023-02-27T03:45:14.778Z,1.60
2023-02-27T03:47:42.074Z,1.70
2023-02-27T03:50:11.378Z,1.58
2023-02-27T03:52:39.418Z,1.38
2023-02-27T03:55:12.225Z,1.40
2023-02-27T03:57:42.399Z,1.98
2023-02-27T04:00:13.482Z,1.38
2023-02-27T04:02:47.132Z,3.10
2023-02-27T04:05:17.986Z,1.23
2023-02-27T04:08:05.090Z,1.35
2023-02-27T04:10:50.304Z,1.15
2023-02-27T04:13:44.536Z,1.48
2023-02-27T04:16:33.976Z,1.00
2023-02-27T04:19:15.799Z,1.45
2023-02-27T04:21:51.657Z,1.10
2023-02-27T04:24:34.168Z,0.98
2023-02-27T04:27:07.777Z,1.90
2023-02-27T04:29:44.998Z,1.23
2023-02-27T04:32:17.728Z,1.20
2023-02-27T04:34:50.649Z,0.88
2023-02-27T04:37:23.614Z,1.45
2023-02-27T04:39:57.211Z,0.80
2023-02-27T04:42:29.179Z,1.65
2023-02-27T04:45:01.395Z,1.65
2023-02-27T04:47:32.288Z,1.60
2023-02-27T04:50:05.069Z,1.48
2023-02-27T04:52:36.752Z,1.73
2023-02-27T04:55:09.391Z,1.52
2023-02-27T04:57:40.949Z,1.40
2023-02-27T05:00:12.761Z,1.95
2023-02-27T05:05:13.469Z,1.33
2023-02-27T05:07:45.168Z,1.23
2023-02-27T05:12:48.282Z,0.55
2023-02-27T05:15:22.309Z,1.15
2023-02-27T05:17:59.231Z,1.73
2023-02-27T05:20:33.240Z,3.25
2023-02-27T05:23:09.704Z,2.97
2023-02-27T05:25:44.545Z,1.30
2023-02-27T05:28:17.847Z,1.63
2023-02-27T05:30:56.044Z,1.20
2023-02-27T05:33:27.499Z,1.30
2023-02-27T05:36:00.688Z,1.17
2023-02-27T05:38:34.505Z,1.30
2023-02-27T05:41:07.437Z,1.50
2023-02-27T05:43:41.536Z,1.80
2023-02-27T05:46:15.149Z,2.03
2023-02-27T05:48:46.837Z,1.95
2023-02-27T05:51:16.554Z,2.55
2023-02-27T05:53:48.330Z,2.25
2023-02-27T05:58:51.404Z,1.10
2023-02-27T06:01:20.005Z,1.55
2023-02-27T06:03:47.294Z,1.55
2023-02-27T06:06:17.463Z,1.63
2023-02-27T06:08:45.272Z,1.80
2023-02-27T06:11:12.779Z,2.28
2023-02-27T06:13:41.923Z,1.50
2023-02-27T06:16:11.769Z,1.10
2023-02-27T06:18:40.370Z,1.70
2023-02-27T06:21:07.562Z,1.45
2023-02-27T06:23:34.889Z,1.48
2023-02-27T06:26:02.118Z,2.03
2023-02-27T06:28:29.820Z,1.40
2023-02-27T06:30:57.427Z,1.77
2023-02-27T06:33:25.078Z,1.95
2023-02-27T06:35:53.704Z,1.80
2023-02-27T06:38:20.940Z,1.83
2023-02-27T06:40:48.195Z,1.73
2023-02-27T06:43:15.381Z,3.00
2023-02-27T06:45:42.633Z,2.00
2023-02-27T06:48:09.876Z,1.77
2023-02-27T06:50:37.023Z,2.80
2023-02-27T06:53:05.700Z,2.00
2023-02-27T06:55:32.995Z,2.33
2023-02-27T06:58:00.173Z,2.00
2023-02-27T07:00:27.470Z,1.35
2023-02-27T07:02:54.654Z,2.00
2023-02-27T07:05:21.830Z,2.30
2023-02-27T07:07:49.012Z,1.40
2023-02-27T07:10:17.887Z,1.88
2023-02-27T07:12:45.128Z,2.13
2023-02-27T07:15:12.438Z,2.03
2023-02-27T07:17:39.782Z,2.45
2023-02-27T07:20:09.588Z,2.58
2023-02-27T07:22:37.493Z,2.20
2023-02-27T07:25:05.533Z,2.58
2023-02-27T07:27:34.291Z,2.42
2023-02-27T07:30:01.568Z,3.10
2023-02-27T07:32:28.741Z,2.53
2023-02-27T07:34:55.987Z,2.67
2023-02-27T07:37:23.167Z,2.35
2023-02-27T07:39:50.390Z,2.05
2023-02-27T07:42:17.890Z,2.40
2023-02-27T07:44:46.700Z,2.35
2023-02-27T07:47:13.868Z,2.20
2023-02-27T07:49:41.058Z,2.38
2023-02-27T07:52:08.362Z,2.80
2023-02-27T07:54:35.853Z,2.25
2023-02-27T07:57:03.422Z,2.65
2023-02-27T07:59:30.607Z,2.40
2023-02-27T08:01:59.261Z,2.30
2023-02-27T08:04:26.474Z,2.05
2023-02-27T08:06:53.804Z,2.25
2023-02-27T08:09:21.053Z,2.00
2023-02-27T08:11:49.283Z,2.00
2023-02-27T08:14:16.520Z,2.22
2023-02-27T08:16:43.711Z,1.95
2023-02-27T08:19:13.960Z,1.98
2023-02-27T08:21:41.264Z,1.77
2023-02-27T08:24:08.450Z,2.10
2023-02-27T08:26:35.739Z,1.65
2023-02-27T08:29:03.112Z,1.95
2023-02-27T08:31:30.371Z,2.83
2023-02-27T08:34:09.354Z,1.77
2023-02-27T08:36:39.477Z,1.63
2023-02-27T08:39:07.692Z,1.67
2023-02-27T08:41:35.595Z,2.53
2023-02-27T08:44:03.008Z,1.80
2023-02-27T08:46:30.573Z,2.30
2023-02-27T08:48:57.919Z,2.17
2023-02-27T08:51:25.358Z,1.73
2023-02-27T08:53:54.250Z,1.70
2023-02-27T08:56:21.402Z,1.63
2023-02-27T08:58:48.628Z,2.20
2023-02-27T09:01:15.884Z,1.98
2023-02-27T09:03:43.105Z,1.92
2023-02-27T09:06:10.471Z,3.42
2023-02-27T09:08:37.673Z,1.80
2023-02-27T09:11:06.349Z,1.73
2023-02-27T09:13:33.654Z,1.83
2023-02-27T09:16:00.881Z,1.35
2023-02-27T09:18:28.064Z,1.70
2023-02-27T09:20:55.335Z,1.77
2023-02-27T09:23:22.532Z,1.58
2023-02-27T09:25:49.777Z,1.90
2023-02-27T09:28:18.331Z,1.02
2023-02-27T09:30:45.507Z,1.40
2023-02-27T09:33:12.693Z,1.80
2023-02-27T09:35:40.117Z,1.40
2023-02-27T09:38:07.489Z,1.40
2023-02-27T09:40:39.778Z,2.60
2023-02-27T09:43:10.926Z,1.23
2023-02-27T09:45:40.190Z,1.40
2023-02-27T09:48:15.681Z,1.45
2023-02-27T09:50:44.549Z,1.25
2023-02-27T09:53:18.581Z,1.08
2023-02-27T09:55:46.378Z,1.10
2023-02-27T09:58:29.785Z,1.63
2023-02-27T10:01:05.931Z,0.98
2023-02-27T10:04:00.292Z,0.80
2023-02-27T10:06:37.264Z,1.45
2023-02-27T10:09:18.259Z,0.80
2023-02-27T10:11:57.350Z,1.00
2023-02-27T10:14:35.593Z,0.65
2023-02-27T10:17:11.981Z,0.80
2023-02-27T10:19:40.325Z,0.93
2023-02-27T10:22:14.003Z,0.80
2023-02-27T10:24:47.219Z,0.90
2023-02-27T10:27:19.138Z,0.93
2023-02-27T10:29:46.510Z,0.70
2023-02-27T10:32:18.913Z,0.85
2023-02-27T10:34:51.370Z,0.88
2023-02-27T10:37:22.297Z,0.50
2023-02-27T10:39:53.838Z,0.53
2023-02-27T10:42:24.003Z,0.60
2023-02-27T10:44:51.308Z,0.50
2023-02-27T10:47:21.556Z,0.80
2023-02-27T10:49:48.941Z,1.30
2023-02-27T10:52:17.754Z,1.05
2023-02-27T10:54:46.717Z,0.95
2023-02-27T10:57:23.358Z,0.60
2023-02-27T10:59:53.078Z,0.68
2023-02-27T11:02:24.729Z,0.70
2023-02-27T11:04:54.275Z,0.68
2023-02-27T11:07:30.863Z,0.90
2023-02-27T11:10:17.603Z,0.90
2023-02-27T11:12:59.756Z,0.80
2023-02-27T11:15:29.644Z,0.73
2023-02-27T11:18:25.336Z,0.50
2023-02-27T11:20:53.567Z,0.70
2023-02-27T11:23:22.732Z,0.47
2023-02-27T11:25:50.975Z,0.50
2023-02-27T11:28:23.943Z,0.45
2023-02-27T11:30:59.817Z,0.50
2023-02-27T11:33:31.222Z,0.43
2023-02-27T11:35:58.689Z,0.60
2023-02-27T11:38:28.670Z,0.70
2023-02-27T11:40:58.018Z,0.60
2023-02-27T11:43:28.029Z,0.70
2023-02-27T11:46:14.487Z,0.40
2023-02-27T11:48:50.802Z,0.50
2023-02-27T11:51:31.860Z,0.73
2023-02-27T11:54:07.996Z,0.90
2023-02-27T11:56:38.205Z,0.40
2023-02-27T11:59:17.464Z,0.40
2023-02-27T12:01:51.443Z,0.35
2023-02-27T12:04:26.438Z,0.60
2023-02-27T12:06:58.966Z,0.57
2023-02-27T12:09:41.824Z,0.63
2023-02-27T12:12:16.792Z,0.82
2023-02-27T12:14:49.223Z,0.60
2023-02-27T12:17:22.861Z,0.60
2023-02-27T12:20:00.992Z,0.50
2023-02-27T12:22:33.250Z,0.40
2023-02-27T12:25:03.958Z,0.57
2023-02-27T12:27:43.767Z,0.60
2023-02-27T12:30:17.666Z,0.68
2023-02-27T12:32:50.425Z,0.43
2023-02-27T12:35:24.176Z,0.40
2023-02-27T12:37:51.535Z,0.40
2023-02-27T12:40:20.360Z,0.60
2023-02-27T12:42:59.332Z,0.45
2023-02-27T12:45:49.555Z,0.93
2023-02-27T12:48:31.667Z,0.60
2023-02-27T12:51:11.882Z,0.50
2023-02-27T12:53:58.818Z,1.52
2023-02-27T12:56:38.506Z,0.60
2023-02-27T12:59:18.945Z,0.57
2023-02-27T13:01:51.063Z,0.50
2023-02-27T13:04:26.050Z,0.50
2023-02-27T13:07:01.639Z,0.55
2023-02-27T13:09:35.736Z,0.70
2023-02-27T13:12:14.357Z,0.82
2023-02-27T13:14:47.528Z,0.60
2023-02-27T13:17:23.484Z,0.40
2023-02-27T13:19:53.511Z,0.50
2023-02-27T13:22:32.502Z,0.50
2023-02-27T13:25:05.625Z,0.55
2023-02-27T13:27:36.888Z,0.80
2023-02-27T13:30:13.789Z,1.60
2023-02-27T13:32:47.103Z,0.77
2023-02-27T13:35:23.500Z,1.58
2023-02-27T13:37:56.839Z,0.50
2023-02-27T13:40:37.161Z,0.70
2023-02-27T13:43:27.479Z,0.80
2023-02-27T13:45:57.372Z,0.88
2023-02-27T13:48:47.816Z,0.63
2023-02-27T13:51:54.465Z,0.50
2023-02-27T13:54:26.563Z,0.60
2023-02-27T13:57:20.940Z,0.82
2023-02-27T13:59:54.671Z,0.60
2023-02-27T14:02:32.706Z,0.80
2023-02-27T14:05:04.184Z,1.90
2023-02-27T14:07:34.056Z,0.52
2023-02-27T14:10:07.752Z,0.60
2023-02-27T14:12:45.547Z,0.55
2023-02-27T14:15:46.887Z,0.70
2023-02-27T14:19:01.681Z,0.80
2023-02-27T14:21:55.898Z,0.70
2023-02-27T14:24:30.226Z,0.60
2023-02-27T14:27:00.026Z,0.70
2023-02-27T14:29:29.554Z,0.60
2023-02-27T14:31:58.787Z,0.60
2023-02-27T14:34:26.783Z,1.00
2023-02-27T14:36:56.437Z,0.80
2023-02-27T14:39:28.172Z,0.50
2023-02-27T14:42:10.638Z,0.38
2023-02-27T14:44:40.017Z,0.77
2023-02-27T14:47:14.556Z,0.82
2023-02-27T14:49:42.877Z,0.75
2023-02-27T14:52:12.289Z,0.88
2023-02-27T14:54:39.495Z,0.75
2023-02-27T14:57:15.422Z,1.00
2023-02-27T14:59:44.649Z,1.00
2023-02-27T15:02:20.588Z,1.08
2023-02-27T15:04:49.698Z,0.85
2023-02-27T15:07:20.339Z,0.93
2023-02-27T15:09:47.654Z,1.00
2023-02-27T15:12:19.437Z,1.05
2023-02-27T15:17:17.065Z,0.70
2023-02-27T15:19:48.993Z,1.15
2023-02-27T15:22:26.122Z,1.05
2023-02-27T15:25:03.810Z,0.90
2023-02-27T15:27:34.626Z,0.70
2023-02-27T15:30:02.321Z,0.70
2023-02-27T15:32:31.012Z,0.77
2023-02-27T15:35:00.213Z,0.90
2023-02-27T15:37:31.290Z,0.75
2023-02-27T15:40:00.122Z,0.50
2023-02-27T15:42:29.962Z,0.68
2023-02-27T15:44:59.533Z,0.70
2023-02-27T15:47:28.992Z,1.13
2023-02-27T15:49:59.643Z,0.70
2023-02-27T15:52:32.120Z,0.60
2023-02-27T15:55:02.266Z,1.20
2023-02-27T15:57:29.791Z,1.15
2023-02-27T16:00:00.301Z,0.60
2023-02-27T16:02:31.064Z,0.52
2023-02-27T16:04:58.514Z,0.50
2023-02-27T16:07:27.041Z,1.67
2023-02-27T16:09:56.616Z,4.05
2023-02-27T16:12:29.196Z,0.80
2023-02-27T16:15:25.598Z,0.82
2023-02-27T16:17:54.676Z,0.60
2023-02-27T16:20:36.657Z,0.52
2023-02-27T16:25:31.700Z,1.02
2023-02-27T16:27:59.246Z,1.00
2023-02-27T16:30:27.916Z,0.90
2023-02-27T16:33:00.475Z,1.67
2023-02-27T16:35:28.410Z,1.10
2023-02-27T16:38:00.843Z,0.70
2023-02-27T16:40:28.499Z,1.30
2023-02-27T16:42:56.253Z,0.75
2023-02-27T16:45:25.089Z,2.70
2023-02-27T16:47:55.481Z,1.52
2023-02-27T16:50:27.704Z,1.20
2023-02-27T16:52:54.868Z,0.93
2023-02-27T16:55:22.070Z,2.50
2023-02-27T16:57:49.279Z,0.95
2023-02-27T17:00:19.215Z,1.05
2023-02-27T17:02:46.401Z,1.92
2023-02-27T17:05:15.623Z,1.50
2023-02-27T17:07:43.774Z,1.45
2023-02-27T17:10:14.615Z,0.75
2023-02-27T17:12:43.789Z,0.80
2023-02-27T17:15:11.156Z,1.35
2023-02-27T17:17:38.441Z,1.25
2023-02-27T17:20:07.080Z,1.13
2023-02-27T17:22:36.579Z,0.82
2023-02-27T17:25:04.172Z,0.50
2023-02-27T17:27:31.600Z,0.80
2023-02-27T17:29:58.913Z,0.85
2023-02-27T17:32:26.234Z,2.03
2023-02-27T17:34:54.127Z,1.08
2023-02-27T17:37:21.716Z,1.38
2023-02-27T17:39:50.317Z,1.33
2023-02-27T17:42:17.631Z,1.48
2023-02-27T17:44:45.158Z,1.10
2023-02-27T17:47:12.381Z,0.75
2023-02-27T17:49:39.666Z,0.85
2023-02-27T17:52:07.095Z,1.30
2023-02-27T17:54:34.521Z,1.00
2023-02-27T17:57:04.186Z,3.10
2023-02-27T17:59:31.421Z,7.22
2023-02-27T18:01:58.718Z,2.42
2023-02-27T18:04:26.119Z,1.75
2023-02-27T18:06:53.853Z,1.05
2023-02-27T18:09:21.130Z,1.60
2023-02-27T18:11:48.329Z,1.65
2023-02-27T18:14:17.012Z,0.77
2023-02-27T18:16:44.307Z,1.13
2023-02-27T18:19:11.644Z,2.03
2023-02-27T18:21:38.934Z,1.20
2023-02-27T18:24:06.745Z,2.00
2023-02-27T18:26:34.670Z,2.95
2023-02-27T18:29:04.928Z,3.10
2023-02-27T18:31:35.597Z,2.35
2023-02-27T18:34:03.189Z,2.20
2023-02-27T18:36:31.614Z,1.50
2023-02-27T18:38:59.760Z,3.05
2023-02-27T18:41:27.981Z,1.63
2023-02-27T18:43:55.394Z,2.13
2023-02-27T18:46:23.881Z,3.42
2023-02-27T18:48:54.031Z,5.63
2023-02-27T18:51:21.393Z,3.17
2023-02-27T18:53:50.055Z,3.05
2023-02-27T18:56:19.790Z,2.35
2023-02-27T18:58:47.369Z,1.60
2023-02-27T19:01:18.994Z,1.40
2023-02-27T19:03:46.289Z,1.48
2023-02-27T19:06:14.990Z,1.50
2023-02-27T19:08:42.503Z,1.35
2023-02-27T19:11:09.897Z,1.70
2023-02-27T19:13:37.097Z,1.60
2023-02-27T19:16:05.053Z,1.25
2023-02-27T19:18:32.286Z,1.77
2023-02-27T19:21:03.075Z,1.40
2023-02-27T19:23:31.753Z,1.30
2023-02-27T19:25:59.560Z,1.50
2023-02-27T19:28:29.637Z,1.08
2023-02-27T19:30:56.978Z,1.05
2023-02-27T19:33:24.237Z,1.40
2023-02-27T19:35:51.501Z,1.85
2023-02-27T19:38:18.834Z,1.95
2023-02-27T19:40:47.642Z,1.30
2023-02-27T19:43:15.038Z,1.52
2023-02-27T19:45:42.526Z,2.38
2023-02-27T19:48:09.887Z,1.50
2023-02-27T19:50:39.528Z,1.58
2023-02-27T19:53:06.737Z,1.70
2023-02-27T19:55:34.035Z,1.08
2023-02-27T19:58:02.586Z,1.45
2023-02-27T20:00:30.266Z,1.60
2023-02-27T20:02:57.518Z,1.80
2023-02-27T20:05:24.941Z,2.40
2023-02-27T20:07:52.260Z,2.03
2023-02-27T20:10:19.680Z,2.50
2023-02-27T20:12:46.920Z,2.45
2023-02-27T20:15:15.445Z,2.83
2023-02-27T20:17:42.604Z,2.20
2023-02-27T20:20:11.084Z,3.05
2023-02-27T20:22:42.341Z,1.95
2023-02-27T20:25:10.672Z,2.63
2023-02-27T20:27:38.062Z,4.22
2023-02-27T20:30:06.274Z,2.42
2023-02-27T20:32:34.868Z,1.90
2023-02-27T20:35:02.130Z,1.70
2023-02-27T20:37:29.308Z,4.43
2023-02-27T20:39:56.631Z,7.20
2023-02-27T20:42:23.839Z,7.50
2023-02-27T20:44:52.873Z,4.90
2023-02-27T20:47:20.103Z,1.73
2023-02-27T20:49:48.832Z,2.00
2023-02-27T20:52:16.020Z,2.00
2023-02-27T20:54:43.287Z,2.00
2023-02-27T20:57:10.653Z,2.10
2023-02-27T20:59:37.972Z,3.70
2023-02-27T21:02:05.222Z,2.20
2023-02-27T21:04:34.258Z,2.33
2023-02-27T21:07:02.965Z,2.83
2023-02-27T21:09:30.715Z,2.03
2023-02-27T21:11:57.868Z,2.05
2023-02-27T21:14:25.115Z,1.60
2023-02-27T21:16:52.311Z,1.60
2023-02-27T21:19:19.564Z,2.72
2023-02-27T21:21:46.789Z,1.73
2023-02-27T21:24:15.865Z,1.98
2023-02-27T21:26:43.478Z,1.42
2023-02-27T21:29:12.751Z,1.88
2023-02-27T21:31:42.016Z,1.58
2023-02-27T21:34:13.007Z,1.85
2023-02-27T21:36:42.110Z,2.30
2023-02-27T21:39:12.972Z,2.80
2023-02-27T21:41:42.529Z,2.30
2023-02-27T21:44:12.578Z,1.73
2023-02-27T21:46:39.811Z,1.75
2023-02-27T21:49:07.106Z,2.20
2023-02-27T21:51:40.316Z,1.73
2023-02-27T21:54:10.382Z,1.48
2023-02-27T21:56:38.217Z,1.30
2023-02-27T21:59:07.371Z,1.60
2023-02-27T22:01:35.384Z,1.65
2023-02-27T22:04:03.214Z,2.35
2023-02-27T22:06:32.440Z,1.85
2023-02-27T22:09:01.559Z,2.25
2023-02-27T22:11:29.478Z,2.88
2023-02-27T22:13:56.965Z,2.53
2023-02-27T22:16:25.610Z,2.20
2023-02-27T22:18:52.826Z,2.45
2023-02-27T22:21:21.811Z,2.58
2023-02-27T22:23:49.997Z,1.92
2023-02-27T22:26:19.291Z,3.08
2023-02-27T22:28:46.487Z,3.45
2023-02-27T22:31:15.962Z,3.00
2023-02-27T22:33:46.600Z,2.28
2023-02-27T22:36:15.597Z,2.80
2023-02-27T22:38:43.561Z,2.22
2023-02-27T22:41:13.037Z,2.70
2023-02-27T22:43:40.495Z,2.40
2023-02-27T22:46:08.651Z,2.42
2023-02-27T22:48:35.897Z,1.77
2023-02-27T22:51:07.310Z,2.38
2023-02-27T22:53:35.764Z,1.90
2023-02-27T22:56:02.994Z,2.10
2023-02-27T22:58:30.289Z,2.42
2023-02-27T23:00:57.502Z,2.42
2023-02-27T23:03:24.827Z,3.45
2023-02-27T23:05:52.100Z,2.92
2023-02-27T23:08:20.709Z,2.65
2023-02-27T23:10:47.927Z,2.20
2023-02-27T23:13:15.157Z,1.90
2023-02-27T23:15:42.421Z,2.17
2023-02-27T23:18:09.619Z,2.15
2023-02-27T23:20:37.411Z,2.42
2023-02-27T23:23:06.931Z,2.50
2023-02-27T23:25:37.534Z,2.45
2023-02-27T23:28:06.001Z,3.00
2023-02-27T23:30:33.767Z,2.60
2023-02-27T23:33:00.992Z,2.50
2023-02-27T23:35:28.881Z,3.40
2023-02-27T23:37:58.335Z,2.70
2023-02-27T23:40:26.957Z,2.92
2023-02-27T23:42:55.532Z,2.80
2023-02-27T23:45:22.838Z,2.67
2023-02-27T23:47:50.577Z,2.42
2023-02-27T23:50:19.249Z,2.63
2023-02-27T23:52:47.366Z,2.60
2023-02-27T23:55:14.783Z,2.83
2023-02-27T23:57:42.315Z,2.60
